createdAt,value
2022-12-01T00:00:28.972Z,13.20
2022-12-01T00:05:29.823Z,12.95
2022-12-01T00:10:32.679Z,15.13
2022-12-01T00:15:35.424Z,14.85
2022-12-01T00:20:36.227Z,14.68
2022-12-01T00:25:37.521Z,14.20
2022-12-01T00:30:38.290Z,15.10
2022-12-01T00:35:39.392Z,15.75
2022-12-01T00:40:40.148Z,17.00
2022-12-01T00:45:42.322Z,17.37
2022-12-01T00:50:43.775Z,15.77
2022-12-01T00:55:44.513Z,15.02
2022-12-01T01:00:45.254Z,14.63
2022-12-01T01:05:46.243Z,15.00
2022-12-01T01:10:47.704Z,14.38
2022-12-01T01:16:07.227Z,14.70
2022-12-01T01:21:12.232Z,15.07
2022-12-01T01:26:19.972Z,16.62
2022-12-01T01:31:23.362Z,16.08
2022-12-01T01:36:25.035Z,14.95
2022-12-01T01:41:26.072Z,15.75
2022-12-01T01:46:32.287Z,15.55
2022-12-01T01:51:38.990Z,13.85
2022-12-01T01:56:39.812Z,13.82
2022-12-01T02:01:40.633Z,10.65
2022-12-01T02:06:41.481Z,11.32
2022-12-01T02:15:37.055Z,9.50
2022-12-01T02:23:39.800Z,9.55
2022-12-01T02:30:17.489Z,8.38
2022-12-01T02:35:34.988Z,13.30
2022-12-01T02:40:52.295Z,12.20
2022-12-01T02:46:05.182Z,12.00
2022-12-01T02:51:11.503Z,10.80
2022-12-01T02:56:15.145Z,11.68
2022-12-01T03:03:24.418Z,28.85
2022-12-01T03:08:45.334Z,25.37
2022-12-01T03:15:35.020Z,24.52
2022-12-01T03:23:58.684Z,17.17
2022-12-01T03:29:42.469Z,20.40
2022-12-01T03:40:13.655Z,33.58
2022-12-01T03:45:20.652Z,27.58
2022-12-01T03:50:26.061Z,29.42
2022-12-01T03:55:30.446Z,22.95
2022-12-01T04:00:32.393Z,30.75
2022-12-01T04:05:34.610Z,22.75
2022-12-01T04:10:35.305Z,25.05
2022-12-01T04:15:36.082Z,21.85
2022-12-01T04:20:36.807Z,15.55
2022-12-01T04:25:37.551Z,14.40
2022-12-01T04:30:38.333Z,11.12
2022-12-01T04:35:39.310Z,10.32
2022-12-01T04:40:40.036Z,9.45
2022-12-01T04:45:41.081Z,9.45
2022-12-01T04:50:41.807Z,9.63
2022-12-01T04:55:42.686Z,9.27
2022-12-01T05:00:43.663Z,10.93
2022-12-01T05:05:44.489Z,9.25
2022-12-01T05:10:45.264Z,8.77
2022-12-01T05:15:46.048Z,8.20
2022-12-01T05:20:59.015Z,7.37
2022-12-01T05:26:01.187Z,7.40
2022-12-01T05:31:02.493Z,8.10
2022-12-01T05:36:03.965Z,7.57
2022-12-01T05:41:04.841Z,6.57
2022-12-01T05:46:05.717Z,9.82
2022-12-01T05:51:10.808Z,10.23
2022-12-01T05:56:11.629Z,11.12
2022-12-01T06:01:12.588Z,12.65
2022-12-01T06:06:13.436Z,12.70
2022-12-01T06:11:14.234Z,15.13
2022-12-01T06:16:15.071Z,18.92
2022-12-01T06:21:16.156Z,27.02
2022-12-01T06:26:16.929Z,18.42
2022-12-01T06:31:17.875Z,27.50
2022-12-01T06:36:18.737Z,24.00
2022-12-01T06:41:19.533Z,23.15
2022-12-01T06:46:20.291Z,24.17
2022-12-01T06:51:21.833Z,21.08
2022-12-01T06:56:22.953Z,19.30
2022-12-01T07:01:24.497Z,17.10
2022-12-01T07:06:25.608Z,17.58
2022-12-01T07:11:26.372Z,19.23
2022-12-01T07:16:27.208Z,19.55
2022-12-01T07:21:28.042Z,18.55
2022-12-01T07:26:28.759Z,20.08
2022-12-01T07:31:29.788Z,17.42
2022-12-01T07:36:30.966Z,21.85
2022-12-01T07:41:31.754Z,25.88
2022-12-01T07:46:32.565Z,24.10
2022-12-01T07:51:34.326Z,29.73
2022-12-01T07:56:35.080Z,22.92
2022-12-01T08:01:40.276Z,18.87
2022-12-01T08:06:43.859Z,19.52
2022-12-01T08:11:44.640Z,17.05
2022-12-01T08:16:47.977Z,17.70
2022-12-01T08:21:48.797Z,14.93
2022-12-01T08:26:49.523Z,14.18
2022-12-01T08:31:50.783Z,13.82
2022-12-01T08:36:51.506Z,13.02
2022-12-01T08:41:52.286Z,14.90
2022-12-01T08:46:53.749Z,14.87
2022-12-01T08:51:55.555Z,16.48
2022-12-01T08:56:56.405Z,16.10
2022-12-01T09:01:58.994Z,16.70
2022-12-01T09:07:01.290Z,18.45
2022-12-01T09:12:03.200Z,18.55
2022-12-01T09:17:05.506Z,22.20
2022-12-01T09:22:06.251Z,21.67
2022-12-01T09:27:08.513Z,19.92
2022-12-01T09:32:09.389Z,20.07
2022-12-01T09:37:10.181Z,21.45
2022-12-01T09:42:15.305Z,22.30
2022-12-01T09:47:29.878Z,24.00
2022-12-01T09:52:40.956Z,26.12
2022-12-01T09:57:42.845Z,31.42
2022-12-01T10:03:39.878Z,28.50
2022-12-01T10:08:46.968Z,30.33
2022-12-01T10:13:47.809Z,29.65
2022-12-01T10:22:44.594Z,33.85
2022-12-01T10:28:52.363Z,33.88
2022-12-01T10:34:36.244Z,31.85
2022-12-01T10:39:40.949Z,36.65
2022-12-01T10:44:43.631Z,30.95
2022-12-01T10:49:44.455Z,30.30
2022-12-01T10:54:45.414Z,31.75
2022-12-01T10:59:54.803Z,36.25
2022-12-01T11:05:05.454Z,29.12
2022-12-01T11:10:20.039Z,34.13
2022-12-01T11:15:31.644Z,32.47
2022-12-01T11:20:37.914Z,32.03
2022-12-01T11:25:38.701Z,36.00
2022-12-01T11:30:39.495Z,29.55
2022-12-01T11:35:47.216Z,34.28
2022-12-01T11:40:50.962Z,32.40
2022-12-01T11:45:53.641Z,32.40
2022-12-01T11:51:31.589Z,32.08
2022-12-01T11:56:32.548Z,29.67
2022-12-01T12:03:49.788Z,31.40
2022-12-01T12:09:03.124Z,29.65
2022-12-01T12:16:57.925Z,30.65
2022-12-01T12:22:29.186Z,32.28
2022-12-01T12:27:51.774Z,36.55
2022-12-01T12:33:29.867Z,34.00
2022-12-01T12:39:02.972Z,30.95
2022-12-01T12:44:48.146Z,30.23
2022-12-01T12:50:44.208Z,28.48
2022-12-01T12:55:49.299Z,30.55
2022-12-01T13:00:57.404Z,29.48
2022-12-01T13:06:10.172Z,30.08
2022-12-01T13:11:34.809Z,28.75
2022-12-01T13:16:42.570Z,30.20
2022-12-01T13:21:46.090Z,29.85
2022-12-01T13:26:55.864Z,26.90
2022-12-01T13:31:56.600Z,30.85
2022-12-01T13:36:57.660Z,23.87
2022-12-01T13:42:19.067Z,20.83
2022-12-01T13:51:02.962Z,16.60
2022-12-01T13:56:39.265Z,18.05
2022-12-01T14:01:44.537Z,18.10
2022-12-01T14:06:48.396Z,17.33
2022-12-01T14:15:41.460Z,18.92
2022-12-01T14:20:45.088Z,19.12
2022-12-01T14:26:10.882Z,18.73
2022-12-01T14:31:12.797Z,20.58
2022-12-01T14:36:34.990Z,19.73
2022-12-01T14:41:44.841Z,20.65
2022-12-01T14:47:01.588Z,19.75
2022-12-01T14:52:23.093Z,18.87
2022-12-01T14:57:31.102Z,19.20
2022-12-01T15:02:32.389Z,19.87
2022-12-01T15:07:42.791Z,20.60
2022-12-01T15:12:44.183Z,19.75
2022-12-01T15:17:45.891Z,20.40
2022-12-01T15:22:46.789Z,20.58
2022-12-01T15:28:01.846Z,20.70
2022-12-01T15:33:04.416Z,20.85
2022-12-01T15:38:11.130Z,21.60
2022-12-01T15:43:25.880Z,20.83
2022-12-01T15:48:33.764Z,21.92
2022-12-01T15:53:44.689Z,21.30
2022-12-01T15:58:46.991Z,20.62
2022-12-01T16:04:07.793Z,22.17
2022-12-01T16:11:14.585Z,21.67
2022-12-01T16:19:47.557Z,20.00
2022-12-01T16:24:54.240Z,19.85
2022-12-01T16:30:05.605Z,19.83
2022-12-01T16:35:30.667Z,20.85
2022-12-01T16:40:32.220Z,19.70
2022-12-01T16:45:33.004Z,20.40
2022-12-01T16:50:33.713Z,17.52
2022-12-01T16:55:41.277Z,19.10
2022-12-01T17:00:42.033Z,20.70
2022-12-01T17:05:44.261Z,18.90
2022-12-01T17:10:48.661Z,18.17
2022-12-01T17:15:51.990Z,17.73
2022-12-01T17:21:01.011Z,17.85
2022-12-01T17:26:06.668Z,16.30
2022-12-01T17:31:08.530Z,18.05
2022-12-01T17:36:11.924Z,16.30
2022-12-01T17:41:15.251Z,15.35
2022-12-01T17:46:16.220Z,15.52
2022-12-01T17:51:17.243Z,16.62
2022-12-01T17:56:18.048Z,16.00
2022-12-01T18:01:24.113Z,15.05
2022-12-01T18:06:27.836Z,14.18
2022-12-01T18:11:28.627Z,13.82
2022-12-01T18:16:31.074Z,15.63
2022-12-01T18:21:31.917Z,14.23
2022-12-01T18:26:33.557Z,14.77
2022-12-01T18:31:34.514Z,14.68
2022-12-01T18:36:39.352Z,15.77
2022-12-01T18:41:40.208Z,15.55
2022-12-01T18:46:41.060Z,14.18
2022-12-01T18:51:41.904Z,15.55
2022-12-01T18:56:43.203Z,16.95
2022-12-01T19:01:46.093Z,15.23
2022-12-01T19:06:47.101Z,14.13
2022-12-01T19:11:47.924Z,14.73
2022-12-01T19:16:48.705Z,14.75
2022-12-01T19:21:50.370Z,16.90
2022-12-01T19:26:51.460Z,15.82
2022-12-01T19:31:52.971Z,16.23
2022-12-01T19:36:55.966Z,15.98
2022-12-01T19:41:56.965Z,16.73
2022-12-01T19:46:57.783Z,18.10
2022-12-01T19:51:58.521Z,18.58
2022-12-01T19:56:59.339Z,17.98
2022-12-01T20:02:00.135Z,18.40
2022-12-01T20:07:01.346Z,20.00
2022-12-01T20:12:02.619Z,20.77
2022-12-01T20:17:03.738Z,20.17
2022-12-01T20:22:04.650Z,20.77
2022-12-01T20:27:05.509Z,20.77
2022-12-01T20:32:06.619Z,20.95
2022-12-01T20:37:07.782Z,20.10
2022-12-01T20:42:09.146Z,20.23
2022-12-01T20:47:09.917Z,20.20
2022-12-01T20:52:10.692Z,21.92
2022-12-01T20:57:11.625Z,21.35
2022-12-01T21:02:12.432Z,21.85
2022-12-01T21:07:13.204Z,22.33
2022-12-01T21:12:34.313Z,21.20
2022-12-01T21:17:45.536Z,22.37
2022-12-01T21:22:48.049Z,22.33
2022-12-01T21:27:49.751Z,22.20
2022-12-01T21:32:51.065Z,24.02
2022-12-01T21:38:01.334Z,23.70
2022-12-01T21:43:23.522Z,23.02
2022-12-01T21:48:35.085Z,23.45
2022-12-01T21:53:37.581Z,22.70
2022-12-01T21:58:38.417Z,23.02
2022-12-01T22:03:43.996Z,22.75
2022-12-01T22:08:48.037Z,22.48
2022-12-01T22:14:35.668Z,22.87
2022-12-01T22:19:41.553Z,23.70
2022-12-01T22:24:45.657Z,23.30
2022-12-01T22:29:50.427Z,25.17
2022-12-01T22:35:10.718Z,25.37
2022-12-01T22:41:01.232Z,25.37
2022-12-01T22:46:23.356Z,23.95
2022-12-01T22:51:41.167Z,24.52
2022-12-01T22:56:50.050Z,24.25
2022-12-01T23:01:53.894Z,25.88
2022-12-01T23:07:15.164Z,23.65
2022-12-01T23:12:34.470Z,24.02
2022-12-01T23:17:38.121Z,24.90
2022-12-01T23:22:39.477Z,24.08
2022-12-01T23:27:40.644Z,24.92
2022-12-01T23:32:42.200Z,24.15
2022-12-01T23:37:46.652Z,24.25
2022-12-01T23:42:48.242Z,26.33
2022-12-01T23:47:50.582Z,25.40
2022-12-01T23:52:52.093Z,27.50
2022-12-01T23:57:54.467Z,25.42
